AFL041 RJAA-UHWW
Flight info
| Callsign | AFL041 |
|---|---|
| Flight time | N/A |
| Altitude | 38000 |
| Route | AKAGI4 AKAGI V15 GTC R211 KADBO B451 IGROD/K0891F380 B451 SANAR SANAR2M |
| Aircraft | MD11/H-SDE1E2E3FGHIJ2J3J4J5M1RWXY/LB1D1 |
Departure
| Time | N/A |
|---|---|
| Airport | Narita International Airport (RJAA) |
Arrival
| Time | 2026-05-05 17:46 |
|---|---|
| Airport | Vladivostok International Airport (UHWW) |
| Time | Latitude | Longitude | Altitude | Speed | Heading |
|---|---|---|---|---|---|
| 2026-05-05 16:20 | 36.59363 | 139.62464 | 37743 ft | 459 kts | 348° |
| 2026-05-05 16:22 | 36.74744 | 139.56830 | 37747 ft | 463 kts | 347° |
| 2026-05-05 16:23 | 36.87193 | 139.52237 | 37746 ft | 467 kts | 347° |
| 2026-05-05 16:23 | 36.96549 | 139.48775 | 37752 ft | 467 kts | 347° |
| 2026-05-05 16:24 | 37.02769 | 139.46471 | 37752 ft | 467 kts | 347° |
| 2026-05-05 16:25 | 37.12084 | 139.43010 | 37750 ft | 465 kts | 347° |
| 2026-05-05 16:25 | 37.21413 | 139.39537 | 37745 ft | 464 kts | 347° |
| 2026-05-05 16:26 | 37.33733 | 139.34925 | 37745 ft | 462 kts | 347° |
| 2026-05-05 16:27 | 37.39899 | 139.32609 | 37744 ft | 461 kts | 347° |
| 2026-05-05 16:27 | 37.46041 | 139.30304 | 37746 ft | 462 kts | 347° |
| 2026-05-05 16:28 | 37.52226 | 139.27982 | 37748 ft | 465 kts | 347° |
| 2026-05-05 16:28 | 37.58427 | 139.25647 | 37745 ft | 463 kts | 347° |
| 2026-05-05 16:29 | 37.64591 | 139.23322 | 37748 ft | 461 kts | 347° |
| 2026-05-05 16:29 | 37.70684 | 139.21020 | 37746 ft | 459 kts | 347° |
| 2026-05-05 16:30 | 37.76799 | 139.18694 | 37750 ft | 458 kts | 347° |
| 2026-05-05 16:30 | 37.82917 | 139.16362 | 37751 ft | 458 kts | 347° |
| 2026-05-05 16:31 | 37.88992 | 139.14045 | 37750 ft | 458 kts | 347° |
| 2026-05-05 16:31 | 37.95039 | 139.11577 | 37747 ft | 461 kts | 341° |
| 2026-05-05 16:32 | 38.00545 | 139.07259 | 37749 ft | 471 kts | 325° |
| 2026-05-05 16:32 | 38.05431 | 139.01715 | 37747 ft | 474 kts | 322° |
| 2026-05-05 16:33 | 38.10352 | 138.96122 | 37746 ft | 473 kts | 323° |
| 2026-05-05 16:33 | 38.15380 | 138.90712 | 37750 ft | 472 kts | 325° |
| 2026-05-05 16:34 | 38.20441 | 138.85417 | 37745 ft | 472 kts | 325° |
| 2026-05-05 16:34 | 38.25494 | 138.80137 | 37750 ft | 472 kts | 325° |
| 2026-05-05 16:35 | 38.29712 | 138.75714 | 37752 ft | 472 kts | 325° |
| 2026-05-05 16:35 | 38.34796 | 138.70366 | 37746 ft | 472 kts | 325° |
| 2026-05-05 16:36 | 38.39835 | 138.65054 | 37745 ft | 472 kts | 325° |
| 2026-05-05 16:36 | 38.44900 | 138.59703 | 37744 ft | 472 kts | 325° |
| 2026-05-05 16:37 | 38.49930 | 138.54354 | 37746 ft | 472 kts | 324° |
| 2026-05-05 16:37 | 38.54941 | 138.48994 | 37745 ft | 472 kts | 324° |
| 2026-05-05 16:38 | 38.59985 | 138.43596 | 37743 ft | 472 kts | 324° |
| 2026-05-05 16:38 | 38.65030 | 138.38195 | 37745 ft | 472 kts | 324° |
| 2026-05-05 16:39 | 38.70037 | 138.32816 | 37748 ft | 472 kts | 324° |
| 2026-05-05 16:39 | 38.75074 | 138.27395 | 37743 ft | 472 kts | 324° |
| 2026-05-05 16:40 | 38.80075 | 138.22007 | 37744 ft | 472 kts | 324° |
| 2026-05-05 16:40 | 38.85102 | 138.16583 | 37743 ft | 472 kts | 324° |
| 2026-05-05 16:41 | 38.90147 | 138.11130 | 37743 ft | 472 kts | 324° |
| 2026-05-05 16:41 | 38.95142 | 138.05719 | 37745 ft | 472 kts | 324° |
| 2026-05-05 16:42 | 39.00148 | 138.00256 | 37744 ft | 472 kts | 324° |
| 2026-05-05 16:42 | 39.05170 | 137.94763 | 37745 ft | 472 kts | 324° |
| 2026-05-05 16:43 | 39.10157 | 137.89307 | 37745 ft | 472 kts | 324° |
| 2026-05-05 16:43 | 39.15151 | 137.83834 | 37748 ft | 472 kts | 324° |
| 2026-05-05 16:44 | 39.20167 | 137.78329 | 37750 ft | 472 kts | 324° |
| 2026-05-05 16:44 | 39.25555 | 137.73666 | 37745 ft | 461 kts | 340° |
| 2026-05-05 16:45 | 39.31578 | 137.71111 | 37748 ft | 456 kts | 349° |
| 2026-05-05 16:45 | 39.37739 | 137.69021 | 37747 ft | 456 kts | 348° |
| 2026-05-05 16:46 | 39.43830 | 137.66762 | 37745 ft | 457 kts | 347° |
| 2026-05-05 16:46 | 39.49884 | 137.64380 | 37749 ft | 457 kts | 347° |
| 2026-05-05 16:47 | 39.55969 | 137.61950 | 37746 ft | 457 kts | 347° |
| 2026-05-05 16:47 | 39.62060 | 137.59515 | 37745 ft | 457 kts | 347° |
| 2026-05-05 16:48 | 39.68156 | 137.57078 | 37745 ft | 457 kts | 347° |
| 2026-05-05 16:48 | 39.74219 | 137.54651 | 37745 ft | 457 kts | 347° |
| 2026-05-05 16:49 | 39.80317 | 137.52206 | 37746 ft | 457 kts | 347° |
| 2026-05-05 16:49 | 39.86402 | 137.49760 | 37746 ft | 457 kts | 347° |
| 2026-05-05 16:50 | 39.92455 | 137.47324 | 37745 ft | 457 kts | 347° |
| 2026-05-05 16:50 | 39.98564 | 137.44860 | 37747 ft | 457 kts | 347° |
| 2026-05-05 16:51 | 40.04626 | 137.42448 | 37744 ft | 457 kts | 347° |
| 2026-05-05 16:51 | 40.10708 | 137.40060 | 37747 ft | 457 kts | 347° |
| 2026-05-05 16:52 | 40.16811 | 137.37668 | 37745 ft | 457 kts | 347° |
| 2026-05-05 16:52 | 40.22916 | 137.35270 | 37748 ft | 457 kts | 347° |
| 2026-05-05 16:53 | 40.29018 | 137.32867 | 37745 ft | 457 kts | 347° |
| 2026-05-05 16:53 | 40.35126 | 137.30457 | 37749 ft | 457 kts | 347° |
| 2026-05-05 16:54 | 40.41186 | 137.28061 | 37750 ft | 457 kts | 347° |
| 2026-05-05 16:54 | 40.47300 | 137.25638 | 37747 ft | 457 kts | 347° |
| 2026-05-05 16:55 | 40.53397 | 137.23211 | 37744 ft | 457 kts | 347° |
| 2026-05-05 16:55 | 40.59465 | 137.20794 | 37745 ft | 457 kts | 347° |
| 2026-05-05 16:56 | 40.65571 | 137.18361 | 37751 ft | 457 kts | 347° |
| 2026-05-05 16:56 | 40.71644 | 137.15938 | 37744 ft | 457 kts | 347° |
| 2026-05-05 16:57 | 40.77725 | 137.13506 | 37749 ft | 457 kts | 347° |
| 2026-05-05 16:57 | 40.83842 | 137.11044 | 37748 ft | 457 kts | 347° |
| 2026-05-05 16:58 | 40.89898 | 137.08603 | 37744 ft | 457 kts | 347° |
| 2026-05-05 16:58 | 40.96013 | 137.06141 | 37747 ft | 457 kts | 347° |
| 2026-05-05 16:59 | 41.02078 | 137.03697 | 37750 ft | 457 kts | 347° |
| 2026-05-05 16:59 | 41.08176 | 137.01234 | 37744 ft | 457 kts | 347° |
| 2026-05-05 17:00 | 41.14274 | 136.98768 | 37748 ft | 457 kts | 347° |
| 2026-05-05 17:00 | 41.20345 | 136.96307 | 37747 ft | 457 kts | 347° |
| 2026-05-05 17:01 | 41.26407 | 136.93845 | 37746 ft | 457 kts | 347° |
| 2026-05-05 17:01 | 41.32497 | 136.91367 | 37750 ft | 457 kts | 347° |
| 2026-05-05 17:02 | 41.38562 | 136.88894 | 37748 ft | 457 kts | 347° |
| 2026-05-05 17:02 | 41.44621 | 136.86419 | 37748 ft | 457 kts | 347° |
| 2026-05-05 17:03 | 41.50710 | 136.83927 | 37748 ft | 457 kts | 347° |
| 2026-05-05 17:03 | 41.56795 | 136.81431 | 37749 ft | 457 kts | 347° |
| 2026-05-05 17:04 | 41.62839 | 136.78756 | 37752 ft | 460 kts | 341° |
| 2026-05-05 17:04 | 41.68315 | 136.74180 | 37746 ft | 472 kts | 322° |
| 2026-05-05 17:05 | 41.72683 | 136.67517 | 37748 ft | 480 kts | 312° |
| 2026-05-05 17:05 | 41.76745 | 136.60407 | 37749 ft | 480 kts | 313° |
| 2026-05-05 17:06 | 41.80912 | 136.53484 | 37749 ft | 479 kts | 314° |
| 2026-05-05 17:06 | 41.85189 | 136.46624 | 37747 ft | 479 kts | 315° |
| 2026-05-05 17:07 | 41.89475 | 136.39789 | 37747 ft | 479 kts | 315° |
| 2026-05-05 17:07 | 41.93736 | 136.32970 | 37746 ft | 479 kts | 314° |
| 2026-05-05 17:08 | 41.98038 | 136.26059 | 37745 ft | 479 kts | 314° |
| 2026-05-05 17:08 | 42.02277 | 136.19230 | 37748 ft | 479 kts | 314° |
| 2026-05-05 17:09 | 42.06542 | 136.12345 | 37743 ft | 479 kts | 314° |
| 2026-05-05 17:09 | 42.10832 | 136.05402 | 37743 ft | 479 kts | 314° |
| 2026-05-05 17:10 | 42.15062 | 135.98542 | 37745 ft | 479 kts | 314° |
| 2026-05-05 17:10 | 42.19317 | 135.91625 | 37746 ft | 479 kts | 314° |
| 2026-05-05 17:11 | 42.23554 | 135.84691 | 37752 ft | 479 kts | 314° |
| 2026-05-05 17:11 | 42.27786 | 135.77726 | 37747 ft | 479 kts | 314° |
| 2026-05-05 17:12 | 42.32018 | 135.70778 | 37747 ft | 479 kts | 314° |
| 2026-05-05 17:12 | 42.36256 | 135.63822 | 37745 ft | 479 kts | 314° |
| 2026-05-05 17:13 | 42.40490 | 135.56859 | 37745 ft | 479 kts | 314° |
| 2026-05-05 17:13 | 42.42599 | 135.53384 | 37626 ft | 474 kts | 314° |
| 2026-05-05 17:13 | 42.44688 | 135.49934 | 36430 ft | 475 kts | 314° |
| 2026-05-05 17:14 | 42.46782 | 135.46476 | 35177 ft | 475 kts | 314° |
| 2026-05-05 17:14 | 42.48882 | 135.42997 | 33808 ft | 478 kts | 314° |
| 2026-05-05 17:14 | 42.50982 | 135.39503 | 32346 ft | 480 kts | 314° |
| 2026-05-05 17:14 | 42.53097 | 135.35980 | 30810 ft | 483 kts | 314° |
| 2026-05-05 17:15 | 42.55223 | 135.32438 | 29150 ft | 486 kts | 314° |
| 2026-05-05 17:15 | 42.57363 | 135.28871 | 27351 ft | 489 kts | 314° |
| 2026-05-05 17:15 | 42.59532 | 135.25259 | 25580 ft | 497 kts | 313° |
| 2026-05-05 17:15 | 42.61720 | 135.21614 | 24048 ft | 499 kts | 311° |
| 2026-05-05 17:16 | 42.63907 | 135.17962 | 22725 ft | 496 kts | 309° |
| 2026-05-05 17:16 | 42.66068 | 135.14349 | 21562 ft | 489 kts | 308° |
| 2026-05-05 17:16 | 42.68192 | 135.10799 | 20503 ft | 479 kts | 307° |
| 2026-05-05 17:16 | 42.70249 | 135.07369 | 19539 ft | 467 kts | 306° |
| 2026-05-05 17:17 | 42.72278 | 135.03989 | 18592 ft | 455 kts | 306° |
| 2026-05-05 17:17 | 42.74256 | 135.00692 | 18286 ft | 449 kts | 306° |
| 2026-05-05 17:17 | 42.75554 | 134.98525 | 18127 ft | 444 kts | 306° |
| 2026-05-05 17:17 | 42.77499 | 134.95275 | 17877 ft | 441 kts | 306° |
| 2026-05-05 17:18 | 42.79432 | 134.92042 | 17816 ft | 438 kts | 305° |
| 2026-05-05 17:18 | 42.81353 | 134.88824 | 17816 ft | 437 kts | 305° |
| 2026-05-05 17:18 | 42.83271 | 134.85610 | 17816 ft | 437 kts | 305° |
| 2026-05-05 17:18 | 42.85187 | 134.82394 | 17774 ft | 438 kts | 305° |
| 2026-05-05 17:19 | 42.87101 | 134.79180 | 17639 ft | 436 kts | 305° |
| 2026-05-05 17:19 | 42.89014 | 134.75960 | 17523 ft | 435 kts | 305° |
| 2026-05-05 17:19 | 42.90904 | 134.72759 | 17356 ft | 433 kts | 305° |
| 2026-05-05 17:19 | 42.92784 | 134.69569 | 17182 ft | 430 kts | 305° |
| 2026-05-05 17:20 | 42.94656 | 134.66389 | 17006 ft | 428 kts | 305° |
| 2026-05-05 17:20 | 42.96516 | 134.63226 | 16832 ft | 425 kts | 304° |
| 2026-05-05 17:20 | 42.98155 | 134.59908 | 16658 ft | 418 kts | 293° |
| 2026-05-05 17:20 | 42.99327 | 134.56312 | 16504 ft | 415 kts | 291° |
| 2026-05-05 17:21 | 43.00613 | 134.52840 | 16326 ft | 413 kts | 294° |
| 2026-05-05 17:21 | 43.01990 | 134.49408 | 16130 ft | 410 kts | 295° |
| 2026-05-05 17:21 | 43.03371 | 134.46016 | 15911 ft | 407 kts | 295° |
| 2026-05-05 17:22 | 43.06065 | 134.39284 | 15521 ft | 400 kts | 295° |
| 2026-05-05 17:22 | 43.07371 | 134.35946 | 15330 ft | 397 kts | 295° |
| 2026-05-05 17:22 | 43.08660 | 134.32622 | 15117 ft | 394 kts | 295° |
| 2026-05-05 17:22 | 43.09934 | 134.29317 | 14922 ft | 390 kts | 295° |
| 2026-05-05 17:23 | 43.11192 | 134.26040 | 14713 ft | 388 kts | 295° |
| 2026-05-05 17:23 | 43.12435 | 134.22796 | 14463 ft | 383 kts | 296° |
| 2026-05-05 17:23 | 43.13669 | 134.19573 | 14212 ft | 380 kts | 296° |
| 2026-05-05 17:23 | 43.14890 | 134.16380 | 13960 ft | 377 kts | 296° |
| 2026-05-05 17:24 | 43.16101 | 134.13208 | 13703 ft | 375 kts | 297° |
| 2026-05-05 17:24 | 43.17294 | 134.10082 | 13444 ft | 373 kts | 297° |
| 2026-05-05 17:24 | 43.18513 | 134.06880 | 13222 ft | 374 kts | 298° |
| 2026-05-05 17:24 | 43.19720 | 134.03712 | 12962 ft | 374 kts | 298° |
| 2026-05-05 17:25 | 43.20897 | 134.00621 | 12709 ft | 368 kts | 298° |
| 2026-05-05 17:25 | 43.21694 | 133.98525 | 12542 ft | 366 kts | 298° |
| 2026-05-05 17:25 | 43.23243 | 133.94442 | 12208 ft | 364 kts | 298° |
| 2026-05-05 17:25 | 43.24413 | 133.91360 | 11960 ft | 360 kts | 298° |
| 2026-05-05 17:26 | 43.25533 | 133.88399 | 11691 ft | 340 kts | 298° |
| 2026-05-05 17:26 | 43.26601 | 133.85575 | 11449 ft | 324 kts | 298° |
| 2026-05-05 17:26 | 43.27617 | 133.82886 | 11188 ft | 310 kts | 298° |
| 2026-05-05 17:26 | 43.28580 | 133.80334 | 10930 ft | 298 kts | 298° |
| 2026-05-05 17:27 | 43.29516 | 133.77854 | 10669 ft | 286 kts | 298° |
| 2026-05-05 17:27 | 43.30423 | 133.75448 | 10435 ft | 284 kts | 300° |
| 2026-05-05 17:27 | 43.31341 | 133.73020 | 10187 ft | 288 kts | 299° |
| 2026-05-05 17:27 | 43.32260 | 133.70579 | 9929 ft | 286 kts | 300° |
| 2026-05-05 17:28 | 43.33169 | 133.68163 | 9776 ft | 283 kts | 300° |
| 2026-05-05 17:28 | 43.34077 | 133.65748 | 9750 ft | 285 kts | 299° |
| 2026-05-05 17:28 | 43.34989 | 133.63321 | 9749 ft | 287 kts | 299° |
| 2026-05-05 17:28 | 43.35904 | 133.60881 | 9750 ft | 286 kts | 299° |
| 2026-05-05 17:29 | 43.36808 | 133.58451 | 9744 ft | 285 kts | 299° |
| 2026-05-05 17:29 | 43.37702 | 133.56017 | 9743 ft | 285 kts | 299° |
| 2026-05-05 17:29 | 43.38592 | 133.53597 | 9747 ft | 283 kts | 299° |
| 2026-05-05 17:29 | 43.39473 | 133.51214 | 9744 ft | 283 kts | 299° |
| 2026-05-05 17:30 | 43.40364 | 133.48809 | 9746 ft | 281 kts | 299° |
| 2026-05-05 17:30 | 43.41253 | 133.46414 | 9747 ft | 281 kts | 299° |
| 2026-05-05 17:30 | 43.42139 | 133.44032 | 9741 ft | 279 kts | 299° |
| 2026-05-05 17:30 | 43.43029 | 133.41639 | 9746 ft | 281 kts | 300° |
| 2026-05-05 17:31 | 43.43922 | 133.39240 | 9749 ft | 281 kts | 299° |
| 2026-05-05 17:31 | 43.44809 | 133.36852 | 9746 ft | 279 kts | 299° |
| 2026-05-05 17:31 | 43.45692 | 133.34475 | 9748 ft | 279 kts | 299° |
| 2026-05-05 17:31 | 43.46567 | 133.32117 | 9746 ft | 279 kts | 299° |
| 2026-05-05 17:32 | 43.47441 | 133.29760 | 9744 ft | 280 kts | 299° |
| 2026-05-05 17:32 | 43.48328 | 133.27366 | 9746 ft | 280 kts | 299° |
| 2026-05-05 17:32 | 43.49218 | 133.24963 | 9750 ft | 282 kts | 299° |
| 2026-05-05 17:32 | 43.50107 | 133.22562 | 9746 ft | 282 kts | 299° |
| 2026-05-05 17:33 | 43.50999 | 133.20149 | 9748 ft | 284 kts | 299° |
| 2026-05-05 17:33 | 43.51894 | 133.17726 | 9748 ft | 284 kts | 299° |
| 2026-05-05 17:33 | 43.52788 | 133.15303 | 9747 ft | 284 kts | 299° |
| 2026-05-05 17:33 | 43.53683 | 133.12876 | 9747 ft | 284 kts | 299° |
| 2026-05-05 17:34 | 43.54575 | 133.10452 | 9747 ft | 283 kts | 299° |
| 2026-05-05 17:34 | 43.55468 | 133.08026 | 9734 ft | 283 kts | 299° |
| 2026-05-05 17:34 | 43.56359 | 133.05605 | 9751 ft | 283 kts | 299° |
| 2026-05-05 17:34 | 43.57252 | 133.03174 | 9751 ft | 284 kts | 299° |
| 2026-05-05 17:35 | 43.58137 | 133.00761 | 9747 ft | 280 kts | 299° |
| 2026-05-05 17:35 | 43.59018 | 132.98357 | 9747 ft | 281 kts | 299° |
| 2026-05-05 17:35 | 43.59902 | 132.95944 | 9748 ft | 283 kts | 299° |
| 2026-05-05 17:35 | 43.60790 | 132.93521 | 9747 ft | 283 kts | 299° |
| 2026-05-05 17:36 | 43.61665 | 132.91128 | 9746 ft | 283 kts | 299° |
| 2026-05-05 17:36 | 43.62553 | 132.88700 | 9747 ft | 283 kts | 299° |
| 2026-05-05 17:36 | 43.63441 | 132.86268 | 9748 ft | 284 kts | 299° |
| 2026-05-05 17:36 | 43.64321 | 132.83855 | 9474 ft | 281 kts | 299° |
| 2026-05-05 17:37 | 43.65072 | 132.81351 | 8961 ft | 283 kts | 287° |
| 2026-05-05 17:37 | 43.65205 | 132.78648 | 8498 ft | 286 kts | 263° |
| 2026-05-05 17:37 | 43.64559 | 132.76052 | 8026 ft | 288 kts | 246° |
| 2026-05-05 17:37 | 43.63612 | 132.73646 | 7722 ft | 282 kts | 243° |
| 2026-05-05 17:38 | 43.62627 | 132.71314 | 7315 ft | 280 kts | 242° |
| 2026-05-05 17:38 | 43.61647 | 132.69001 | 6926 ft | 278 kts | 242° |
| 2026-05-05 17:38 | 43.60678 | 132.66698 | 6531 ft | 276 kts | 243° |
| 2026-05-05 17:38 | 43.59724 | 132.64411 | 6132 ft | 274 kts | 243° |
| 2026-05-05 17:39 | 43.58796 | 132.62175 | 5790 ft | 270 kts | 243° |
| 2026-05-05 17:39 | 43.57863 | 132.59919 | 5368 ft | 271 kts | 243° |
| 2026-05-05 17:39 | 43.56936 | 132.57673 | 4977 ft | 268 kts | 243° |
| 2026-05-05 17:39 | 43.56013 | 132.55447 | 4589 ft | 266 kts | 243° |
| 2026-05-05 17:40 | 43.55094 | 132.53231 | 4217 ft | 266 kts | 243° |
| 2026-05-05 17:40 | 43.54186 | 132.51022 | 3874 ft | 262 kts | 243° |
| 2026-05-05 17:40 | 43.53294 | 132.48827 | 3876 ft | 264 kts | 243° |
| 2026-05-05 17:40 | 43.52403 | 132.46621 | 3872 ft | 263 kts | 243° |
| 2026-05-05 17:41 | 43.51536 | 132.44469 | 3869 ft | 249 kts | 243° |
| 2026-05-05 17:41 | 43.50721 | 132.42446 | 3838 ft | 234 kts | 244° |
| 2026-05-05 17:41 | 43.49942 | 132.40505 | 3629 ft | 230 kts | 244° |
| 2026-05-05 17:41 | 43.49185 | 132.38613 | 3459 ft | 218 kts | 244° |
| 2026-05-05 17:42 | 43.48474 | 132.36842 | 3219 ft | 206 kts | 244° |
| 2026-05-05 17:42 | 43.47804 | 132.35172 | 2947 ft | 192 kts | 244° |
| 2026-05-05 17:42 | 43.47173 | 132.33595 | 2737 ft | 189 kts | 244° |
| 2026-05-05 17:42 | 43.46557 | 132.32058 | 2495 ft | 173 kts | 244° |
| 2026-05-05 17:43 | 43.46001 | 132.30679 | 2244 ft | 158 kts | 245° |
| 2026-05-05 17:43 | 43.45481 | 132.29376 | 2066 ft | 155 kts | 245° |
| 2026-05-05 17:43 | 43.44960 | 132.28072 | 1872 ft | 155 kts | 245° |
| 2026-05-05 17:43 | 43.44438 | 132.26770 | 1679 ft | 155 kts | 245° |
| 2026-05-05 17:44 | 43.43924 | 132.25493 | 1465 ft | 154 kts | 244° |
| 2026-05-05 17:44 | 43.43396 | 132.24212 | 1262 ft | 152 kts | 243° |
| 2026-05-05 17:44 | 43.42875 | 132.22953 | 1016 ft | 149 kts | 245° |
| 2026-05-05 17:44 | 43.42401 | 132.21694 | 786 ft | 147 kts | 246° |
| 2026-05-05 17:45 | 43.41918 | 132.20461 | 627 ft | 145 kts | 243° |
| 2026-05-05 17:45 | 43.41424 | 132.19278 | 487 ft | 143 kts | 244° |
| 2026-05-05 17:45 | 43.40944 | 132.18070 | 301 ft | 144 kts | 243° |
| 2026-05-05 17:45 | 43.40454 | 132.16855 | 70 ft | 146 kts | 243° |
| 2026-05-05 17:46 | 43.40002 | 132.15724 | 37 ft | 122 kts | 240° |
| 2026-05-05 17:46 | 43.39642 | 132.14834 | 41 ft | 78 kts | 241° |
| 2026-05-05 17:46 | 43.39461 | 132.14386 | 41 ft | 39 kts | 241° |
| 2026-05-05 17:46 | 43.39366 | 132.14190 | 42 ft | 11 kts | 208° |
| 2026-05-05 17:47 | 43.39331 | 132.14190 | 40 ft | 3 kts | 163° |
| 2026-05-05 17:47 | 43.39289 | 132.14216 | 39 ft | 13 kts | 152° |
| 2026-05-05 17:47 | 43.39208 | 132.14299 | 40 ft | 13 kts | 119° |
| 2026-05-05 17:47 | 43.39219 | 132.14395 | 40 ft | 9 kts | 58° |
| 2026-05-05 17:48 | 43.39249 | 132.14465 | 37 ft | 8 kts | 59° |
| 2026-05-05 17:48 | 43.39287 | 132.14555 | 40 ft | 16 kts | 60° |
| 2026-05-05 17:48 | 43.39349 | 132.14712 | 40 ft | 22 kts | 61° |
| 2026-05-05 17:48 | 43.39434 | 132.14922 | 40 ft | 28 kts | 61° |
| 2026-05-05 17:49 | 43.39530 | 132.15160 | 38 ft | 28 kts | 61° |
| 2026-05-05 17:49 | 43.39621 | 132.15384 | 40 ft | 26 kts | 61° |
| 2026-05-05 17:49 | 43.39690 | 132.15555 | 40 ft | 16 kts | 61° |
| 2026-05-05 17:49 | 43.39740 | 132.15680 | 40 ft | 11 kts | 64° |
| 2026-05-05 17:50 | 43.39757 | 132.15725 | 40 ft | 5 kts | 60° |
| 2026-05-05 17:50 | 43.39786 | 132.15796 | 38 ft | 12 kts | 60° |
| 2026-05-05 17:50 | 43.39836 | 132.15920 | 40 ft | 18 kts | 61° |
| 2026-05-05 17:50 | 43.39891 | 132.16059 | 40 ft | 12 kts | 67° |
| 2026-05-05 17:51 | 43.39889 | 132.16094 | 40 ft | 3 kts | 118° |
| 2026-05-05 17:51 | 43.39854 | 132.16133 | 40 ft | 11 kts | 148° |
| 2026-05-05 17:51 | 43.39774 | 132.16195 | 39 ft | 12 kts | 149° |
| 2026-05-05 17:51 | 43.39750 | 132.16260 | 40 ft | 6 kts | 88° |
| 2026-05-05 17:52 | 43.39761 | 132.16311 | 40 ft | 5 kts | 78° |
| 2026-05-05 17:52 | 43.39758 | 132.16349 | 40 ft | 3 kts | 102° |
| 2026-05-05 17:52 | 43.39749 | 132.16375 | 40 ft | 3 kts | 128° |
| 2026-05-05 17:52 | 43.39725 | 132.16395 | 40 ft | 5 kts | 148° |
| 2026-05-05 17:53 | 43.39700 | 132.16416 | 40 ft | 0 kts | 148° |
| 2026-05-05 17:53 | 43.39699 | 132.16417 | 40 ft | 0 kts | 148° |
| 2026-05-05 17:53 | 43.39699 | 132.16418 | 40 ft | 0 kts | 148° |